createdAt,value
2018-01-19T00:00:55.751Z,14.90
2018-01-19T00:03:23.313Z,13.60
2018-01-19T00:05:50.905Z,14.67
2018-01-19T00:08:18.922Z,13.40
2018-01-19T00:10:46.489Z,11.80
2018-01-19T00:13:14.452Z,12.87
2018-01-19T00:15:42.018Z,14.77
2018-01-19T00:18:09.607Z,16.00
2018-01-19T00:20:37.242Z,18.03
2018-01-19T00:23:04.802Z,13.57
2018-01-19T00:25:32.465Z,20.80
2018-01-19T00:28:00.330Z,17.47
2018-01-19T00:30:27.910Z,14.60
2018-01-19T00:32:55.861Z,15.07
2018-01-19T00:35:23.421Z,14.57
2018-01-19T00:37:51.045Z,15.43
2018-01-19T00:40:18.618Z,19.23
2018-01-19T00:42:46.178Z,21.20
2018-01-19T00:45:14.087Z,16.03
2018-01-19T00:47:41.650Z,17.50
2018-01-19T00:50:09.227Z,15.87
2018-01-19T00:52:37.172Z,18.47
2018-01-19T00:55:04.743Z,18.00
2018-01-19T00:57:32.524Z,19.57
2018-01-19T01:00:00.341Z,18.27
2018-01-19T01:02:27.917Z,15.33
2018-01-19T01:04:55.524Z,20.13
2018-01-19T01:07:23.085Z,19.97
2018-01-19T01:09:51.029Z,19.43
2018-01-19T01:12:18.600Z,15.20
2018-01-19T01:14:46.191Z,24.40
2018-01-19T01:17:13.863Z,18.67
2018-01-19T01:19:41.469Z,16.80
2018-01-19T01:22:09.345Z,17.10
2018-01-19T01:24:37.205Z,16.60
2018-01-19T01:27:04.845Z,19.83
2018-01-19T01:29:32.458Z,17.60
2018-01-19T01:32:00.085Z,16.70
2018-01-19T01:34:27.703Z,17.87
2018-01-19T01:36:55.262Z,17.63
2018-01-19T01:39:22.869Z,16.37
2018-01-19T01:41:50.419Z,16.93
2018-01-19T01:44:18.083Z,15.43
2018-01-19T01:46:45.952Z,14.93
2018-01-19T01:49:13.505Z,16.20
2018-01-19T01:51:41.135Z,15.80
2018-01-19T01:54:09.047Z,13.93
2018-01-19T01:56:36.688Z,13.53
2018-01-19T01:59:04.260Z,13.67
2018-01-19T02:01:31.828Z,15.43
2018-01-19T02:03:59.405Z,15.30
2018-01-19T02:06:26.967Z,15.80
2018-01-19T02:08:54.561Z,11.47
2018-01-19T02:11:22.133Z,16.00
2018-01-19T02:13:50.052Z,11.23
2018-01-19T02:16:17.761Z,13.33
2018-01-19T02:18:45.357Z,13.47
2018-01-19T02:21:12.941Z,11.20
2018-01-19T02:23:40.538Z,11.03
2018-01-19T02:26:08.095Z,12.33
2018-01-19T02:28:35.689Z,11.63
2018-01-19T02:31:03.297Z,11.70
2018-01-19T02:33:30.894Z,11.40
2018-01-19T02:35:58.445Z,11.00
2018-01-19T02:38:26.045Z,11.07
2018-01-19T02:40:53.593Z,11.80
2018-01-19T02:43:21.188Z,11.20
2018-01-19T02:45:48.816Z,15.63
2018-01-19T02:48:16.385Z,10.60
2018-01-19T02:50:44.005Z,11.93
2018-01-19T02:53:11.601Z,10.70
2018-01-19T02:55:39.280Z,11.87
2018-01-19T02:58:06.849Z,15.53
2018-01-19T03:00:34.453Z,12.60
2018-01-19T03:03:02.203Z,10.97
2018-01-19T03:05:29.794Z,11.70
2018-01-19T03:07:57.403Z,12.50
2018-01-19T03:10:24.933Z,12.70
2018-01-19T03:12:52.504Z,13.63
2018-01-19T03:15:20.102Z,15.10
2018-01-19T03:17:47.681Z,11.20
2018-01-19T03:20:15.321Z,12.70
2018-01-19T03:22:42.922Z,11.87
2018-01-19T03:25:10.495Z,11.80
2018-01-19T03:27:38.044Z,11.80
2018-01-19T03:30:05.616Z,12.00
2018-01-19T03:32:33.193Z,13.53
2018-01-19T03:35:00.754Z,15.63
2018-01-19T03:37:28.333Z,11.83
2018-01-19T03:39:55.889Z,12.30
2018-01-19T03:42:23.472Z,13.83
2018-01-19T03:44:51.114Z,18.33
2018-01-19T03:47:18.992Z,15.33
2018-01-19T03:49:46.556Z,12.33
2018-01-19T03:52:14.134Z,11.03
2018-01-19T03:54:41.696Z,10.97
2018-01-19T03:57:09.296Z,13.13
2018-01-19T03:59:36.908Z,12.37
2018-01-19T04:02:04.780Z,15.83
2018-01-19T04:04:32.370Z,12.77
2018-01-19T04:06:59.976Z,11.63
2018-01-19T04:09:27.544Z,13.80
2018-01-19T04:11:55.100Z,13.50
2018-01-19T04:14:23.031Z,12.10
2018-01-19T04:16:50.586Z,14.10
2018-01-19T04:19:18.412Z,12.30
2018-01-19T04:21:46.014Z,11.50
2018-01-19T04:24:13.591Z,12.17
2018-01-19T04:26:41.157Z,12.07
2018-01-19T04:29:08.748Z,11.70
2018-01-19T04:34:10.143Z,14.60
2018-01-19T04:36:37.741Z,15.37
2018-01-19T04:39:05.335Z,13.13
2018-01-19T04:41:32.941Z,13.23
2018-01-19T04:44:00.533Z,12.00
2018-01-19T04:46:28.134Z,13.20
2018-01-19T04:48:55.748Z,15.60
2018-01-19T04:51:23.306Z,11.53
2018-01-19T04:53:50.867Z,12.60
2018-01-19T04:56:18.468Z,12.17
2018-01-19T04:58:46.359Z,12.33
2018-01-19T05:01:13.957Z,12.00
2018-01-19T05:03:41.556Z,11.97
2018-01-19T05:06:09.124Z,11.27
2018-01-19T05:08:36.694Z,12.30
2018-01-19T05:11:04.295Z,12.33
2018-01-19T05:13:31.863Z,12.10
2018-01-19T05:15:59.682Z,12.13
2018-01-19T05:18:27.283Z,12.73
2018-01-19T05:20:54.880Z,13.60
2018-01-19T05:23:22.449Z,13.43
2018-01-19T05:25:50.060Z,12.10
2018-01-19T05:28:17.622Z,11.83
2018-01-19T05:30:45.219Z,15.37
2018-01-19T05:33:12.815Z,12.63
2018-01-19T05:35:40.439Z,12.93
2018-01-19T05:38:07.980Z,15.07
2018-01-19T05:40:35.602Z,13.10
2018-01-19T05:43:03.258Z,13.87
2018-01-19T05:45:30.828Z,11.90
2018-01-19T05:47:58.430Z,11.60
2018-01-19T05:50:26.017Z,16.13
2018-01-19T05:52:53.649Z,11.83
2018-01-19T05:55:21.273Z,12.00
2018-01-19T05:57:48.846Z,12.03
2018-01-19T06:00:16.439Z,12.90
2018-01-19T06:02:44.048Z,14.90
2018-01-19T06:05:11.649Z,14.83
2018-01-19T06:07:39.207Z,14.03
2018-01-19T06:10:06.776Z,11.60
2018-01-19T06:12:34.407Z,15.30
2018-01-19T06:15:01.962Z,16.37
2018-01-19T06:17:29.520Z,14.17
2018-01-19T06:19:57.116Z,14.00
2018-01-19T06:22:24.709Z,19.60
2018-01-19T06:24:52.756Z,13.50
2018-01-19T06:27:20.289Z,16.73
2018-01-19T06:29:47.889Z,15.50
2018-01-19T06:32:15.533Z,14.90
2018-01-19T06:34:43.357Z,16.37
2018-01-19T06:37:10.949Z,15.53
2018-01-19T06:39:38.546Z,13.27
2018-01-19T06:42:06.132Z,17.03
2018-01-19T06:44:34.010Z,13.73
2018-01-19T06:47:01.613Z,18.30
2018-01-19T06:49:29.197Z,15.03
2018-01-19T06:51:57.112Z,16.50
2018-01-19T06:54:24.775Z,19.50
2018-01-19T06:56:52.360Z,14.53
2018-01-19T06:59:19.953Z,14.50
2018-01-19T07:01:47.584Z,15.93
2018-01-19T07:04:15.553Z,17.43
2018-01-19T07:06:43.191Z,14.10
2018-01-19T07:09:10.803Z,17.67
2018-01-19T07:11:38.393Z,37.47
2018-01-19T07:14:05.949Z,20.83
2018-01-19T07:16:33.555Z,16.00
2018-01-19T07:19:01.146Z,19.80
2018-01-19T07:21:28.695Z,16.03
2018-01-19T07:23:56.304Z,18.07
2018-01-19T07:26:23.883Z,18.50
2018-01-19T07:28:51.490Z,19.03
2018-01-19T07:31:19.088Z,17.07
2018-01-19T07:33:46.702Z,23.30
2018-01-19T07:36:14.337Z,18.83
2018-01-19T07:38:42.202Z,24.70
2018-01-19T07:41:09.872Z,14.70
2018-01-19T07:43:37.440Z,19.77
2018-01-19T07:46:05.045Z,15.20
2018-01-19T07:48:32.654Z,24.27
2018-01-19T07:51:00.214Z,14.77
2018-01-19T07:53:27.887Z,18.43
2018-01-19T07:55:55.500Z,19.83
2018-01-19T07:58:23.406Z,27.33
2018-01-19T08:00:51.011Z,20.50
2018-01-19T08:03:18.591Z,20.43
2018-01-19T08:05:46.187Z,16.60
2018-01-19T08:08:14.060Z,17.60
2018-01-19T08:10:41.647Z,22.00
2018-01-19T08:13:09.295Z,16.87
2018-01-19T08:15:36.932Z,25.90
2018-01-19T08:18:04.532Z,26.13
2018-01-19T08:20:32.371Z,21.13
2018-01-19T08:23:00.018Z,16.77
2018-01-19T08:25:27.571Z,15.20
2018-01-19T08:27:55.184Z,16.50
2018-01-19T08:30:22.817Z,18.87
2018-01-19T08:32:50.379Z,23.60
2018-01-19T08:35:17.966Z,33.10
2018-01-19T08:37:45.643Z,18.37
2018-01-19T08:40:13.248Z,16.93
2018-01-19T08:42:40.841Z,17.97
2018-01-19T08:45:08.460Z,21.60
2018-01-19T08:47:36.018Z,22.97
2018-01-19T08:50:03.747Z,20.30
2018-01-19T08:52:31.343Z,16.57
2018-01-19T08:54:58.941Z,23.63
2018-01-19T08:57:26.542Z,21.53
2018-01-19T08:59:54.165Z,19.63
2018-01-19T09:02:21.806Z,24.43
2018-01-19T09:04:49.482Z,21.40
2018-01-19T09:07:17.120Z,16.60
2018-01-19T09:09:44.702Z,17.87
2018-01-19T09:12:12.339Z,25.07
2018-01-19T09:14:39.960Z,24.20
2018-01-19T09:17:07.564Z,19.07
2018-01-19T09:19:35.148Z,17.87
2018-01-19T09:22:02.763Z,21.70
2018-01-19T09:24:30.321Z,21.57
2018-01-19T09:26:57.891Z,14.83
2018-01-19T09:29:25.513Z,21.30
2018-01-19T09:31:53.103Z,18.23
2018-01-19T09:34:20.681Z,21.23
2018-01-19T09:36:48.299Z,25.43
2018-01-19T09:39:15.904Z,22.93
2018-01-19T09:41:43.459Z,23.70
2018-01-19T09:44:11.085Z,18.87
2018-01-19T09:46:38.698Z,25.53
2018-01-19T09:49:06.622Z,21.87
2018-01-19T09:51:34.573Z,19.93
2018-01-19T09:54:02.153Z,21.70
2018-01-19T09:56:29.999Z,24.60
2018-01-19T09:58:57.636Z,24.23
2018-01-19T10:01:25.217Z,23.87
2018-01-19T10:03:52.815Z,31.97
2018-01-19T10:06:20.417Z,28.87
2018-01-19T10:08:47.989Z,25.17
2018-01-19T10:11:15.590Z,21.33
2018-01-19T10:13:43.216Z,26.33
2018-01-19T10:16:10.802Z,22.37
2018-01-19T10:18:38.669Z,23.43
2018-01-19T10:21:06.308Z,34.03
2018-01-19T10:23:34.188Z,30.30
2018-01-19T10:26:01.808Z,27.10
2018-01-19T10:28:29.421Z,36.30
2018-01-19T10:30:56.989Z,23.40
2018-01-19T10:33:24.593Z,20.90
2018-01-19T10:35:52.204Z,26.53
2018-01-19T10:38:19.776Z,30.23
2018-01-19T10:40:47.351Z,22.23
2018-01-19T10:43:14.985Z,28.57
2018-01-19T10:45:43.053Z,20.57
2018-01-19T10:48:10.608Z,22.73
2018-01-19T10:50:38.260Z,22.43
2018-01-19T10:53:05.844Z,35.37
2018-01-19T10:55:33.449Z,25.43
2018-01-19T10:58:01.072Z,33.70
2018-01-19T11:00:28.660Z,23.90
2018-01-19T11:02:56.249Z,28.43
2018-01-19T11:05:23.831Z,29.15
2018-01-19T11:07:51.439Z,30.80
2018-01-19T11:10:19.009Z,26.67
2018-01-19T11:12:46.609Z,29.23
2018-01-19T11:15:14.411Z,34.63
2018-01-19T11:17:41.982Z,26.13
2018-01-19T11:20:09.568Z,28.10
2018-01-19T11:22:37.167Z,24.90
2018-01-19T11:25:04.739Z,23.87
2018-01-19T11:27:32.350Z,19.83
2018-01-19T11:29:59.988Z,29.37
2018-01-19T11:32:27.539Z,27.20
2018-01-19T11:34:55.151Z,22.37
2018-01-19T11:37:22.763Z,31.70
2018-01-19T11:39:50.382Z,30.13
2018-01-19T11:42:17.987Z,33.83
2018-01-19T11:44:45.566Z,43.63
2018-01-19T11:47:13.125Z,38.20
2018-01-19T11:49:41.073Z,26.90
2018-01-19T11:52:08.629Z,30.97
2018-01-19T11:54:36.291Z,29.30
2018-01-19T11:57:03.897Z,35.03
2018-01-19T11:59:31.450Z,32.50
2018-01-19T12:01:59.301Z,34.20
2018-01-19T12:04:26.974Z,30.90
2018-01-19T12:06:54.655Z,35.13
2018-01-19T12:09:22.271Z,31.43
2018-01-19T12:11:49.897Z,30.00
2018-01-19T12:14:17.458Z,27.40
2018-01-19T12:16:45.045Z,24.47
2018-01-19T12:19:12.656Z,33.47
2018-01-19T12:21:40.225Z,31.90
2018-01-19T12:24:07.856Z,28.60
2018-01-19T12:26:35.508Z,25.93
2018-01-19T12:29:03.064Z,30.90
2018-01-19T12:31:30.643Z,34.63
2018-01-19T12:33:58.299Z,26.33
2018-01-19T12:36:25.860Z,30.03
2018-01-19T12:38:53.420Z,29.53
2018-01-19T12:41:21.061Z,36.77
2018-01-19T12:43:48.767Z,26.77
2018-01-19T12:46:16.371Z,26.47
2018-01-19T12:48:43.986Z,20.47
2018-01-19T12:51:11.597Z,32.80
2018-01-19T12:53:39.241Z,27.53
2018-01-19T12:56:06.877Z,25.27
2018-01-19T12:58:34.507Z,29.80
2018-01-19T13:01:02.090Z,29.70
2018-01-19T13:03:29.730Z,30.67
2018-01-19T13:05:57.596Z,33.20
2018-01-19T13:08:25.177Z,36.30
2018-01-19T13:10:52.837Z,34.13
2018-01-19T13:13:20.810Z,31.63
2018-01-19T13:15:48.478Z,24.27
2018-01-19T13:18:16.099Z,28.33
2018-01-19T13:20:43.759Z,25.83
2018-01-19T13:23:11.399Z,33.07
2018-01-19T13:25:39.103Z,20.83
2018-01-19T13:28:06.701Z,27.00
2018-01-19T13:30:34.536Z,25.23
2018-01-19T13:33:02.408Z,30.67
2018-01-19T13:35:30.182Z,32.47
2018-01-19T13:37:57.803Z,33.23
2018-01-19T13:40:25.432Z,29.53
2018-01-19T13:42:53.220Z,24.60
2018-01-19T13:45:20.848Z,26.07
2018-01-19T13:47:48.690Z,26.17
2018-01-19T13:50:16.250Z,31.30
2018-01-19T13:52:44.123Z,29.17
2018-01-19T13:55:11.742Z,32.50
2018-01-19T13:57:39.480Z,33.27
2018-01-19T14:00:07.076Z,30.20
2018-01-19T14:02:34.668Z,33.67
2018-01-19T14:05:02.223Z,29.10
2018-01-19T14:07:29.816Z,32.63
2018-01-19T14:09:57.400Z,32.30
2018-01-19T14:12:25.026Z,33.43
2018-01-19T14:14:52.618Z,26.83
2018-01-19T14:17:20.361Z,35.23
2018-01-19T14:19:48.052Z,34.60
2018-01-19T14:22:15.612Z,26.40
2018-01-19T14:24:43.261Z,24.80
2018-01-19T14:27:10.959Z,26.47
2018-01-19T14:29:38.591Z,34.70
2018-01-19T14:32:06.243Z,31.87
2018-01-19T14:34:33.807Z,33.50
2018-01-19T14:37:01.687Z,40.90
2018-01-19T14:39:29.338Z,44.17
2018-01-19T14:41:56.894Z,32.93
2018-01-19T14:44:24.511Z,38.73
2018-01-19T14:46:52.140Z,34.37
2018-01-19T14:49:19.744Z,26.10
2018-01-19T14:51:47.338Z,33.77
2018-01-19T14:54:15.006Z,27.63
2018-01-19T14:56:42.561Z,30.53
2018-01-19T14:59:10.419Z,28.00
2018-01-19T15:01:38.160Z,39.60
2018-01-19T15:04:05.749Z,26.60
2018-01-19T15:06:33.336Z,25.00
2018-01-19T15:09:00.994Z,36.77
2018-01-19T15:11:28.583Z,40.57
2018-01-19T15:13:56.156Z,28.20
2018-01-19T15:16:23.779Z,24.53
2018-01-19T15:18:51.721Z,47.70
2018-01-19T15:21:19.287Z,26.30
2018-01-19T15:23:46.934Z,22.77
2018-01-19T15:26:14.710Z,21.73
2018-01-19T15:28:42.372Z,34.60
2018-01-19T15:31:10.235Z,29.60
2018-01-19T15:33:37.814Z,34.30
2018-01-19T15:36:05.448Z,21.77
2018-01-19T15:38:33.084Z,22.20
2018-01-19T15:41:00.664Z,21.40
2018-01-19T15:43:28.359Z,26.53
2018-01-19T15:45:55.971Z,28.00
2018-01-19T15:48:23.886Z,30.43
2018-01-19T15:50:51.653Z,26.10
2018-01-19T15:53:19.261Z,32.90
2018-01-19T15:55:46.842Z,21.80
2018-01-19T15:58:14.420Z,25.57
2018-01-19T16:00:42.082Z,30.50
2018-01-19T16:03:09.956Z,27.33
2018-01-19T16:05:37.564Z,18.70
2018-01-19T16:08:05.192Z,23.00
2018-01-19T16:10:32.813Z,22.80
2018-01-19T16:13:00.383Z,24.27
2018-01-19T16:15:28.030Z,36.63
2018-01-19T16:17:55.609Z,36.90
2018-01-19T16:20:23.261Z,21.77
2018-01-19T16:22:50.876Z,27.83
2018-01-19T16:25:18.450Z,19.43
2018-01-19T16:27:46.060Z,16.13
2018-01-19T16:30:13.947Z,31.30
2018-01-19T16:32:41.559Z,25.33
2018-01-19T16:35:09.116Z,17.13
2018-01-19T16:37:37.038Z,18.63
2018-01-19T16:40:04.619Z,23.13
2018-01-19T16:42:32.175Z,23.53
2018-01-19T16:44:59.778Z,32.17
2018-01-19T16:47:27.441Z,23.53
2018-01-19T16:49:55.030Z,23.67
2018-01-19T16:52:22.623Z,22.63
2018-01-19T16:54:50.204Z,24.00
2018-01-19T16:57:17.788Z,26.67
2018-01-19T16:59:45.399Z,20.27
2018-01-19T17:02:12.969Z,24.47
2018-01-19T17:04:40.548Z,18.50
2018-01-19T17:07:08.149Z,23.13
2018-01-19T17:09:35.696Z,32.63
2018-01-19T17:12:03.286Z,24.43
2018-01-19T17:14:30.883Z,21.60
2018-01-19T17:16:58.439Z,31.50
2018-01-19T17:19:26.106Z,23.60
2018-01-19T17:21:53.779Z,29.43
2018-01-19T17:24:21.335Z,25.63
2018-01-19T17:26:48.928Z,27.27
2018-01-19T17:29:17.075Z,28.43
2018-01-19T17:31:44.680Z,36.10
2018-01-19T17:34:12.265Z,27.80
2018-01-19T17:36:39.892Z,27.17
2018-01-19T17:39:07.506Z,29.57
2018-01-19T17:41:35.167Z,30.03
2018-01-19T17:44:02.939Z,21.13
2018-01-19T17:46:30.617Z,26.07
2018-01-19T17:48:58.184Z,36.73
2018-01-19T17:51:25.835Z,33.83
2018-01-19T17:53:53.529Z,25.43
2018-01-19T17:56:21.151Z,29.10
2018-01-19T17:58:49.141Z,20.77
2018-01-19T18:01:16.708Z,31.43
2018-01-19T18:03:44.325Z,25.70
2018-01-19T18:06:11.921Z,26.67
2018-01-19T18:08:39.517Z,24.80
2018-01-19T18:11:07.206Z,15.00
2018-01-19T18:13:35.102Z,17.83
2018-01-19T18:16:03.090Z,17.30
2018-01-19T18:18:30.871Z,16.57
2018-01-19T18:20:58.490Z,16.47
2018-01-19T18:23:26.090Z,16.17
2018-01-19T18:25:53.790Z,16.20
2018-01-19T18:28:21.481Z,18.50
2018-01-19T18:30:49.226Z,18.23
2018-01-19T18:33:17.104Z,22.67
2018-01-19T18:35:44.748Z,18.40
2018-01-19T18:38:12.357Z,16.97
2018-01-19T18:40:39.969Z,23.20
2018-01-19T18:43:07.574Z,18.53
2018-01-19T18:45:35.186Z,20.87
2018-01-19T18:48:02.796Z,21.63
2018-01-19T18:50:30.428Z,26.13
2018-01-19T18:52:58.128Z,28.10
2018-01-19T18:55:25.730Z,20.43
2018-01-19T18:57:53.544Z,20.67
2018-01-19T19:00:21.115Z,23.13
2018-01-19T19:02:48.672Z,21.70
2018-01-19T19:05:16.282Z,17.80
2018-01-19T19:07:43.829Z,21.87
2018-01-19T19:10:11.448Z,22.07
2018-01-19T19:12:39.022Z,21.77
2018-01-19T19:15:06.655Z,21.70
2018-01-19T19:17:34.222Z,17.83
2018-01-19T19:20:01.866Z,22.47
2018-01-19T19:22:29.449Z,28.87
2018-01-19T19:24:57.008Z,25.00
2018-01-19T19:27:24.651Z,22.90
2018-01-19T19:29:52.243Z,25.47
2018-01-19T19:32:19.873Z,21.27
2018-01-19T19:34:48.081Z,27.77
2018-01-19T19:37:15.649Z,28.10
2018-01-19T19:39:43.305Z,25.87
2018-01-19T19:42:10.891Z,26.40
2018-01-19T19:44:38.534Z,25.30
2018-01-19T19:47:06.083Z,27.87
2018-01-19T19:49:34.565Z,27.03
2018-01-19T19:52:02.152Z,30.30
2018-01-19T19:54:29.710Z,25.10
2018-01-19T19:56:57.656Z,31.53
2018-01-19T19:59:25.699Z,44.30
2018-01-19T20:01:53.624Z,36.87
2018-01-19T20:04:21.587Z,33.53
2018-01-19T20:06:49.197Z,35.87
2018-01-19T20:09:16.817Z,46.40
2018-01-19T20:11:44.467Z,33.10
2018-01-19T20:14:12.035Z,44.83
2018-01-19T20:16:39.635Z,38.60
2018-01-19T20:19:07.220Z,27.87
2018-01-19T20:21:34.798Z,28.53
2018-01-19T20:24:02.367Z,32.30
2018-01-19T20:26:30.039Z,36.73
2018-01-19T20:28:57.595Z,34.00
2018-01-19T20:31:25.148Z,32.97
2018-01-19T20:33:52.750Z,31.83
2018-01-19T20:36:20.335Z,38.60
2018-01-19T20:38:47.892Z,43.73
2018-01-19T20:41:15.549Z,44.20
2018-01-19T20:43:43.226Z,39.53
2018-01-19T20:46:10.916Z,38.80
2018-01-19T20:48:38.540Z,36.33
2018-01-19T20:51:06.444Z,46.87
2018-01-19T20:53:34.045Z,42.07
2018-01-19T20:56:01.635Z,35.23
2018-01-19T20:58:29.219Z,37.03
2018-01-19T21:00:56.794Z,37.90
2018-01-19T21:03:24.436Z,37.57
2018-01-19T21:05:52.121Z,38.23
2018-01-19T21:08:19.697Z,43.60
2018-01-19T21:10:47.309Z,34.00
2018-01-19T21:13:14.971Z,37.93
2018-01-19T21:15:42.825Z,36.33
2018-01-19T21:18:10.469Z,35.57
2018-01-19T21:20:38.050Z,36.47
2018-01-19T21:23:05.858Z,37.17
2018-01-19T21:25:33.515Z,38.83
2018-01-19T21:28:01.170Z,38.73
2018-01-19T21:30:28.839Z,36.07
2018-01-19T21:32:56.449Z,37.20
2018-01-19T21:35:24.037Z,39.43
2018-01-19T21:37:51.962Z,37.93
2018-01-19T21:40:19.544Z,37.37
2018-01-19T21:42:47.101Z,39.80
2018-01-19T21:45:14.655Z,38.80
2018-01-19T21:47:42.248Z,37.37
2018-01-19T21:50:09.820Z,37.27
2018-01-19T21:52:37.677Z,35.60
2018-01-19T21:55:05.336Z,38.23
2018-01-19T21:57:32.900Z,37.60
2018-01-19T22:00:00.481Z,41.60
2018-01-19T22:02:28.090Z,39.93
2018-01-19T22:04:55.637Z,36.87
2018-01-19T22:07:23.176Z,33.33
2018-01-19T22:09:50.827Z,37.13
2018-01-19T22:12:18.421Z,34.53
2018-01-19T22:14:46.271Z,39.63
2018-01-19T22:17:14.244Z,40.30
2018-01-19T22:19:41.828Z,42.57
2018-01-19T22:22:09.381Z,31.67
2018-01-19T22:24:36.973Z,37.30
2018-01-19T22:27:05.013Z,36.30
2018-01-19T22:29:32.570Z,41.77
2018-01-19T22:32:00.161Z,35.87
2018-01-19T22:34:27.758Z,42.20
2018-01-19T22:36:55.411Z,40.50
2018-01-19T22:39:22.982Z,35.13
2018-01-19T22:41:50.598Z,32.10
2018-01-19T22:44:18.170Z,33.63
2018-01-19T22:46:45.817Z,36.33
2018-01-19T22:49:13.406Z,40.20
2018-01-19T22:51:41.013Z,37.70
2018-01-19T22:54:08.709Z,32.70
2018-01-19T22:56:36.260Z,32.87
2018-01-19T22:59:04.067Z,33.60
2018-01-19T23:01:31.749Z,42.23
2018-01-19T23:03:59.319Z,38.53
2018-01-19T23:06:26.904Z,37.97
2018-01-19T23:08:54.770Z,42.87
2018-01-19T23:11:22.343Z,39.87
2018-01-19T23:13:49.912Z,37.70
2018-01-19T23:16:17.506Z,33.97
2018-01-19T23:18:45.109Z,35.53
2018-01-19T23:21:12.676Z,39.90
2018-01-19T23:23:40.288Z,33.30
2018-01-19T23:26:08.197Z,36.00
2018-01-19T23:28:35.748Z,38.93
2018-01-19T23:31:03.333Z,33.23
2018-01-19T23:33:30.928Z,33.73
2018-01-19T23:35:58.510Z,32.10
2018-01-19T23:38:26.173Z,30.10
2018-01-19T23:40:53.767Z,34.40
2018-01-19T23:43:21.323Z,31.33
2018-01-19T23:45:48.978Z,37.63
2018-01-19T23:48:16.543Z,33.13
2018-01-19T23:50:44.144Z,37.97
2018-01-19T23:53:11.763Z,37.23
2018-01-19T23:55:39.640Z,31.57
2018-01-19T23:58:07.186Z,31.63
